Time;durP1;ratioP1;P1;durP2;ratioP2;P2;SDS_P1;SDS_P2;PMS_P1;PMS_P2;Temp;Humidity;BMP_temperature;BMP_pressure;BME280_temperature;BME280_humidity;BME280_pressure;Samples;Min_cycle;Max_cycle;Signal;HPM_P1;HPM_P2
2022/12/05 04:50:16;;;;;;;;;;;;;;;8.00;71.87;96842.41;4243776;27;10281;-74
2022/12/05 04:52:19;;;;;;;;;;;;;;;8.29;71.31;96845.16;4241288;27;5778;-74
2022/12/05 04:54:27;;;;;;;;;;;;;;;8.54;70.78;96845.78;4233319;27;5628;-74
2022/12/05 04:56:33;;;;;;;;;;;;;;;8.73;70.50;96847.09;4243244;27;5602;-75
2022/12/05 04:58:36;;;;;;;;;;;;;;;8.89;69.93;96856.66;4242810;27;5597;-76
2022/12/05 05:00:45;;;;;;;;;;;;;;;9.00;69.95;96848.28;4241486;27;5613;-77
2022/12/05 05:02:54;;;;;;;;;;;;;;;9.08;69.62;96858.75;4241297;27;5732;-76
2022/12/05 05:05:00;;;;;;;;;;;;;;;9.16;69.75;96858.63;4236826;27;5617;-76
2022/12/05 05:07:07;;;;;;;;;;;;;;;9.21;69.46;96864.19;4247813;27;5708;-77
2022/12/05 05:09:11;;;;;;;;;;;;;;;9.26;69.26;96864.47;4236520;27;5699;-76
2022/12/05 05:11:17;;;;;;;;;;;;;;;9.29;69.15;96864.13;4231425;27;5764;-76
2022/12/05 05:13:20;;;;;;;;;;;;;;;9.34;69.02;96867.00;4233227;27;5681;-79
2022/12/05 05:15:22;;;;;;;;;;;;;;;9.39;68.92;96863.81;4241695;27;5669;-78
2022/12/05 05:17:25;;;;;;;;;;;;;;;9.41;68.47;96867.09;4259678;27;5614;-77
2022/12/05 05:19:28;;;;;;;;;;;;;;;9.45;68.35;96867.53;4237007;27;5883;-77
2022/12/05 05:21:33;;;;;;;;;;;;;;;9.47;68.57;96865.53;4234373;27;5641;-78
2022/12/05 05:23:37;;;;;;;;;;;;;;;9.49;68.27;96868.81;4244548;27;5612;-77
2022/12/05 05:25:40;;;;;;;;;;;;;;;9.50;67.90;96873.06;4231303;27;5677;-76
2022/12/05 05:27:42;;;;;;;;;;;;;;;9.51;67.90;96869.44;4231460;27;5670;-78
2022/12/05 05:29:45;;;;;;;;;;;;;;;9.53;68.03;96875.38;4231154;27;5779;-79
2022/12/05 05:31:48;;;;;;;;;;;;;;;9.55;67.85;96871.53;4259484;27;5587;-78
2022/12/05 05:33:51;;;;;;;;;;;;;;;9.55;67.80;96873.34;4263881;27;5567;-76
2022/12/05 05:35:54;;;;;;;;;;;;;;;9.57;67.47;96874.00;4246582;27;5606;-75
2022/12/05 05:37:57;;;;;;;;;;;;;;;9.57;67.54;96866.06;4245896;27;5723;-75
2022/12/05 05:40:01;;;;;;;;;;;;;;;9.59;67.36;96879.91;4245869;27;5582;-75
2022/12/05 05:42:12;;;;;;;;;;;;;;;9.58;67.30;96873.81;4246095;27;5590;-75
2022/12/05 05:44:15;;;;;;;;;;;;;;;9.59;67.40;96880.72;4243796;27;5772;-75
2022/12/05 05:46:19;;;;;;;;;;;;;;;9.57;67.33;96881.91;4243104;27;5593;-76
2022/12/05 05:48:22;;;;;;;;;;;;;;;9.55;67.36;96881.28;4241244;27;5714;-74
2022/12/05 05:50:24;;;;;;;;;;;;;;;9.53;67.33;96886.75;4235587;27;5986;-76
2022/12/05 05:52:27;;;;;;;;;;;;;;;9.53;66.98;96875.38;4234745;28;5586;-75
2022/12/05 05:54:30;;;;;;;;;;;;;;;9.53;66.81;96878.81;4230360;28;5602;-74
2022/12/05 05:56:34;;;;;;;;;;;;;;;9.52;66.76;96890.38;4233967;28;5642;-74
2022/12/05 05:58:37;;;;;;;;;;;;;;;9.53;67.06;96891.22;4209250;28;5633;-75
2022/12/05 06:00:40;;;;;;;;;;;;;;;9.51;66.80;96890.53;4236212;28;5622;-74
2022/12/05 06:02:42;;;;;;;;;;;;;;;9.52;66.88;96900.94;4227333;27;5602;-76
2022/12/05 06:04:46;;;;;;;;;;;;;;;9.53;66.88;96897.31;4222290;28;5781;-75
2022/12/05 06:06:48;;;;;;;;;;;;;;;9.55;66.78;96907.66;4232843;27;6617;-76
2022/12/05 06:08:51;;;;;;;;;;;;;;;9.56;66.27;96901.38;4227321;28;5808;-76
2022/12/05 06:10:54;;;;;;;;;;;;;;;9.56;66.64;96901.38;4212978;28;5625;-75
2022/12/05 06:13:00;;;;;;;;;;;;;;;9.58;66.39;96904.66;4232165;27;5811;-78
2022/12/05 06:15:02;;;;;;;;;;;;;;;9.55;66.30;96912.94;4232431;27;5602;-75
2022/12/05 06:17:05;;;;;;;;;;;;;;;9.55;66.11;96913.75;4233409;28;5744;-74
2022/12/05 06:19:08;;;;;;;;;;;;;;;9.55;66.21;96921.69;4228897;28;5609;-74
2022/12/05 06:21:11;;;;;;;;;;;;;;;9.55;65.95;96920.88;4233401;28;5594;-74
2022/12/05 06:23:18;;;;;;;;;;;;;;;9.55;66.26;96926.97;4231009;28;5609;-73
2022/12/05 06:25:20;;;;;;;;;;;;;;;9.56;66.03;96928.59;4212330;28;5704;-74
2022/12/05 06:27:23;;;;;;;;;;;;;;;9.56;65.98;96930.41;4225459;28;5613;-73
2022/12/05 06:29:27;;;;;;;;;;;;;;;9.56;66.04;96931.25;4229772;27;5750;-74
2022/12/05 06:31:35;;;;;;;;;;;;;;;9.57;65.57;96934.69;4235811;27;5615;-74
2022/12/05 06:33:38;;;;;;;;;;;;;;;9.59;66.02;96935.31;4241281;27;5769;-74
2022/12/05 06:35:41;;;;;;;;;;;;;;;9.59;65.74;96932.69;4216039;28;6483;-74
2022/12/05 06:37:45;;;;;;;;;;;;;;;9.57;65.60;96930.22;4230491;28;5590;-74
2022/12/05 06:39:51;;;;;;;;;;;;;;;9.59;65.38;96937.97;4226845;28;5838;-74
2022/12/05 06:41:54;;;;;;;;;;;;;;;9.57;65.52;96924.13;4235304;28;5673;-74
2022/12/05 06:43:58;;;;;;;;;;;;;;;9.58;65.47;96936.31;4215939;28;5625;-74
2022/12/05 06:46:06;;;;;;;;;;;;;;;9.56;65.61;96933.06;4237362;27;5797;-74
2022/12/05 06:48:09;;;;;;;;;;;;;;;9.56;65.36;96935.69;4227320;28;5684;-74
2022/12/05 06:50:12;;;;;;;;;;;;;;;9.55;65.23;96947.25;4227873;28;5606;-75
2022/12/05 06:52:15;;;;;;;;;;;;;;;9.54;65.14;96941.16;4236236;28;5733;-74
2022/12/05 06:54:17;;;;;;;;;;;;;;;9.54;65.21;96945.63;4227179;28;5617;-74
2022/12/05 06:56:20;;;;;;;;;;;;;;;9.53;65.07;96947.44;4227169;28;5608;-75
2022/12/05 06:58:23;;;;;;;;;;;;;;;9.53;65.18;96938.72;4233661;28;5700;-75
2022/12/05 07:02:50;;;;;;;;;;;;;;;9.52;64.81;96945.00;4229748;28;5176;-78
2022/12/05 07:04:53;;;;;;;;;;;;;;;9.50;64.82;96957.53;4225935;28;5637;-78
2022/12/05 07:06:56;;;;;;;;;;;;;;;9.49;65.14;96947.97;4232115;28;5601;-78
2022/12/05 07:08:58;;;;;;;;;;;;;;;9.49;65.01;96953.25;4229359;28;5713;-78
2022/12/05 07:11:01;;;;;;;;;;;;;;;9.47;64.78;96960.53;4233808;28;5610;-77
2022/12/05 07:13:04;;;;;;;;;;;;;;;9.47;64.98;96966.63;4231966;28;5606;-78
2022/12/05 07:15:08;;;;;;;;;;;;;;;9.47;65.07;96971.09;4225728;28;6331;-78
2022/12/05 07:17:11;;;;;;;;;;;;;;;9.46;65.09;96969.47;4234279;28;5609;-78
2022/12/05 07:19:16;;;;;;;;;;;;;;;9.44;64.70;96974.91;4226089;28;5111;-79
2022/12/05 07:21:20;;;;;;;;;;;;;;;9.44;64.67;96984.66;4232606;28;5598;-79
2022/12/05 07:23:23;;;;;;;;;;;;;;;9.45;64.99;96981.00;4226807;28;5606;-79
2022/12/05 07:25:25;;;;;;;;;;;;;;;9.43;65.03;96981.19;4227240;28;5613;-78
2022/12/05 07:27:28;;;;;;;;;;;;;;;9.43;64.98;96985.66;4226517;28;5839;-78
2022/12/05 07:29:31;;;;;;;;;;;;;;;9.43;64.83;96991.75;4227031;28;5632;-78
2022/12/05 07:31:35;;;;;;;;;;;;;;;9.42;64.82;96991.94;4231553;28;5620;-78
2022/12/05 07:33:38;;;;;;;;;;;;;;;9.46;64.80;96993.22;4227054;28;5605;-78
2022/12/05 07:35:43;;;;;;;;;;;;;;;9.45;64.41;96988.94;4228557;28;5598;-78
2022/12/05 07:37:45;;;;;;;;;;;;;;;9.44;64.79;96996.03;4232703;28;5811;-80
2022/12/05 07:39:51;;;;;;;;;;;;;;;9.42;64.61;97000.69;4226584;28;5585;-80
2022/12/05 07:41:54;;;;;;;;;;;;;;;9.42;64.21;96999.84;4207628;28;5868;-80
2022/12/05 07:43:58;;;;;;;;;;;;;;;9.39;64.65;97002.84;4220205;27;5730;-79
2022/12/05 07:46:03;;;;;;;;;;;;;;;9.42;64.65;97005.13;4220234;28;5843;-80
2022/12/05 07:48:06;;;;;;;;;;;;;;;9.43;64.43;97014.69;4226362;27;5779;-80
2022/12/05 07:50:10;;;;;;;;;;;;;;;9.43;64.61;97010.22;4228029;27;5583;-80
2022/12/05 07:52:14;;;;;;;;;;;;;;;9.45;64.57;97017.97;4233489;28;5633;-80
2022/12/05 07:54:17;;;;;;;;;;;;;;;9.45;64.50;97021.41;4215750;28;5852;-79
2022/12/05 07:56:20;;;;;;;;;;;;;;;9.45;64.08;97023.25;4224981;27;5709;-79
2022/12/05 07:58:23;;;;;;;;;;;;;;;9.43;64.23;97023.41;4222273;27;5594;-79
2022/12/05 08:00:26;;;;;;;;;;;;;;;9.45;64.43;97033.78;4234764;27;5603;-80
2022/12/05 08:02:33;;;;;;;;;;;;;;;9.44;64.22;97029.50;4233564;27;5795;-81
2022/12/05 08:04:42;;;;;;;;;;;;;;;9.44;64.18;97034.78;4221679;28;5672;-80
2022/12/05 08:06:44;;;;;;;;;;;;;;;9.44;64.13;97034.78;4232179;27;5750;-79
2022/12/05 08:08:49;;;;;;;;;;;;;;;9.45;64.13;97033.78;4228335;27;5603;-81
2022/12/05 08:10:53;;;;;;;;;;;;;;;9.45;64.00;97036.44;4227868;27;5586;-79
2022/12/05 08:12:55;;;;;;;;;;;;;;;9.47;64.01;97042.34;4219730;27;5771;-79
2022/12/05 08:14:58;;;;;;;;;;;;;;;9.46;63.79;97044.16;4229043;27;5814;-79
2022/12/05 08:17:01;;;;;;;;;;;;;;;9.48;63.95;97047.44;4234043;28;5650;-79
2022/12/05 08:19:06;;;;;;;;;;;;;;;9.51;63.97;97043.59;4233238;27;5615;-79
2022/12/05 08:21:12;;;;;;;;;;;;;;;9.51;63.77;97052.38;4230327;28;5083;-79
2022/12/05 08:23:14;;;;;;;;;;;;;;;9.51;63.91;97047.09;4209069;28;5727;-80
2022/12/05 08:25:19;;;;;;;;;;;;;;;9.51;63.90;97052.38;4226959;28;5594;-80
2022/12/05 08:27:21;;;;;;;;;;;;;;;9.54;63.72;97052.00;4231817;28;5605;-79
2022/12/05 08:29:26;;;;;;;;;;;;;;;9.58;63.44;97055.09;4221173;28;5602;-80
2022/12/05 08:31:31;;;;;;;;;;;;;;;9.58;63.82;97065.66;4231576;27;5151;-79
2022/12/05 08:33:35;;;;;;;;;;;;;;;9.57;63.72;97056.91;4225105;28;7644;-79
2022/12/05 08:35:38;;;;;;;;;;;;;;;9.58;63.71;97063.84;4234111;27;5677;-79
2022/12/05 08:37:41;;;;;;;;;;;;;;;9.59;63.70;97064.66;4228993;28;5792;-80
2022/12/05 08:39:43;;;;;;;;;;;;;;;9.60;63.42;97067.13;4225187;28;6342;-79
2022/12/05 08:41:49;;;;;;;;;;;;;;;9.60;63.31;97064.47;4234274;28;6564;-80
2022/12/05 08:43:53;;;;;;;;;;;;;;;9.63;63.44;97060.69;4219138;28;5613;-79
2022/12/05 08:45:55;;;;;;;;;;;;;;;9.64;63.38;97062.31;4225884;28;5665;-80
2022/12/05 08:47:58;;;;;;;;;;;;;;;9.67;63.51;97069.03;4232122;28;5780;-81
2022/12/05 08:50:01;;;;;;;;;;;;;;;9.68;63.25;97060.94;4225612;28;5606;-80
2022/12/05 08:52:04;;;;;;;;;;;;;;;9.71;63.15;97073.78;4234077;28;5590;-80
2022/12/05 08:54:06;;;;;;;;;;;;;;;9.72;63.40;97080.69;4233712;28;5610;-79
2022/12/05 08:56:10;;;;;;;;;;;;;;;9.73;63.14;97087.59;4233945;28;5590;-79
2022/12/05 08:58:14;;;;;;;;;;;;;;;9.74;63.00;97083.13;4234646;28;5610;-79
2022/12/05 09:00:18;;;;;;;;;;;;;;;9.75;63.03;97092.72;4228760;28;5616;-79
2022/12/05 09:02:21;;;;;;;;;;;;;;;9.75;63.06;97085.63;4217218;28;5636;-79
2022/12/05 09:04:24;;;;;;;;;;;;;;;9.74;62.83;97094.56;4218023;28;5617;-79
2022/12/05 09:06:29;;;;;;;;;;;;;;;9.73;63.13;97099.97;4217305;28;5601;-79
2022/12/05 09:08:32;;;;;;;;;;;;;;;9.76;62.87;97097.81;4217078;28;5111;-79
2022/12/05 09:10:34;;;;;;;;;;;;;;;9.78;62.77;97085.25;4217242;28;5616;-79
2022/12/05 09:12:38;;;;;;;;;;;;;;;9.78;62.85;97085.25;4216960;28;5692;-79
2022/12/05 09:14:42;;;;;;;;;;;;;;;9.79;62.71;97089.53;4220021;28;5629;-80
2022/12/05 09:16:46;;;;;;;;;;;;;;;9.80;62.70;97093.81;4224059;28;5677;-80
2022/12/05 09:18:51;;;;;;;;;;;;;;;9.80;62.75;97091.16;4233778;28;5712;-80
2022/12/05 09:20:53;;;;;;;;;;;;;;;9.78;62.48;97095.81;4232400;28;5609;-80
2022/12/05 09:22:57;;;;;;;;;;;;;;;9.81;62.67;97100.72;4234020;28;5605;-80
2022/12/05 09:25:00;;;;;;;;;;;;;;;9.82;62.80;97093.63;4221741;28;5806;-79
2022/12/05 09:27:03;;;;;;;;;;;;;;;9.84;62.63;97107.47;4219961;28;5668;-79
2022/12/05 09:29:06;;;;;;;;;;;;;;;9.82;62.70;97107.66;4220094;28;5773;-79
2022/12/05 09:31:20;;;;;;;;;;;;;;;9.83;62.61;97111.09;4202802;28;6294;-80
2022/12/05 09:33:25;;;;;;;;;;;;;;;9.85;62.29;97117.03;4220124;28;5866;-80
2022/12/05 09:35:28;;;;;;;;;;;;;;;9.85;62.51;97112.59;4236205;28;5794;-79
2022/12/05 09:37:31;;;;;;;;;;;;;;;9.82;62.47;97112.94;4237408;28;5594;-80
2022/12/05 09:39:43;;;;;;;;;;;;;;;9.84;62.40;97121.47;4235823;28;5751;-79
2022/12/05 09:42:09;;;;;;;;;;;;;;;9.87;62.12;97120.31;4220473;28;5673;-80
2022/12/05 09:44:22;;;;;;;;;;;;;;;9.85;62.16;97120.50;4207322;28;5704;-80
2022/12/05 09:46:37;;;;;;;;;;;;;;;9.85;62.39;97127.59;4227782;28;5087;-80
2022/12/05 09:48:41;;;;;;;;;;;;;;;9.87;62.05;97120.31;4235711;28;7710;-80
2022/12/05 09:50:47;;;;;;;;;;;;;;;9.85;62.20;97119.66;4236221;28;5625;-80
2022/12/05 09:53:02;;;;;;;;;;;;;;;9.86;62.25;97116.88;4220201;28;5613;-79
2022/12/05 09:55:10;;;;;;;;;;;;;;;9.88;61.98;97122.78;4219405;28;5609;-79
2022/12/05 09:57:13;;;;;;;;;;;;;;;9.88;62.32;97128.06;4219546;28;5743;-79
2022/12/05 09:59:19;;;;;;;;;;;;;;;9.87;62.01;97122.97;4222609;28;5788;-80
2022/12/05 10:01:37;;;;;;;;;;;;;;;9.87;61.90;97117.69;4235942;28;5730;-80
2022/12/05 10:03:46;;;;;;;;;;;;;;;9.85;62.14;97115.22;4219436;28;5632;-79
2022/12/05 10:05:59;;;;;;;;;;;;;;;9.88;62.20;97122.78;4219959;28;5722;-78
2022/12/05 10:08:12;;;;;;;;;;;;;;;9.85;62.10;97115.22;4219437;28;5669;-79
2022/12/05 10:10:27;;;;;;;;;;;;;;;9.87;62.04;97118.50;4219938;28;5625;-79
2022/12/05 10:12:54;;;;;;;;;;;;;;;9.91;61.86;97119.78;4219541;28;5782;-80
2022/12/05 10:15:04;;;;;;;;;;;;;;;9.92;62.00;97118.78;4219935;28;5724;-80
2022/12/05 10:17:18;;;;;;;;;;;;;;;9.92;61.70;97113.50;4219787;28;5781;-80
2022/12/05 10:19:26;;;;;;;;;;;;;;;9.95;61.89;97114.94;4230467;28;5590;-78
2022/12/05 10:21:33;;;;;;;;;;;;;;;9.95;61.88;97111.47;4229316;28;5668;-81
2022/12/05 10:23:44;;;;;;;;;;;;;;;10.00;61.94;97119.69;4219626;28;5689;-80
2022/12/05 10:26:07;;;;;;;;;;;;;;;10.02;61.50;97115.88;4218692;28;5719;-80
2022/12/05 10:28:29;;;;;;;;;;;;;;;10.02;61.45;97120.34;4219945;28;5653;-79
2022/12/05 10:30:35;;;;;;;;;;;;;;;10.03;61.47;97114.88;4233629;28;5693;-80
2022/12/05 10:32:49;;;;;;;;;;;;;;;10.02;61.61;97112.41;4226270;28;5617;-80
2022/12/05 10:34:59;;;;;;;;;;;;;;;10.00;61.47;97106.50;4235686;28;5685;-80
2022/12/05 10:37:10;;;;;;;;;;;;;;;10.00;61.61;97103.84;4228274;27;5696;-78
2022/12/05 10:39:13;;;;;;;;;;;;;;;9.99;61.65;97104.84;4219759;28;5679;-79
2022/12/05 10:41:17;;;;;;;;;;;;;;;9.98;61.47;97106.69;4233462;28;5614;-80
2022/12/05 10:43:25;;;;;;;;;;;;;;;9.96;61.07;97102.56;4236057;28;5736;-80
2022/12/05 10:45:27;;;;;;;;;;;;;;;9.93;61.63;97109.84;4235232;28;5626;-79
2022/12/05 10:47:31;;;;;;;;;;;;;;;9.96;61.50;97103.38;4220866;28;5756;-79
2022/12/05 10:49:37;;;;;;;;;;;;;;;10.00;61.67;97103.84;4218329;28;5915;-80
2022/12/05 10:51:41;;;;;;;;;;;;;;;10.00;61.51;97093.28;4219137;28;5863;-80
2022/12/05 10:53:48;;;;;;;;;;;;;;;9.99;61.24;97099.56;4231792;28;5736;-79
2022/12/05 10:55:51;;;;;;;;;;;;;;;10.02;61.61;97096.56;4218864;28;5616;-79
2022/12/05 10:58:16;;;;;;;;;;;;;;;10.02;61.44;97097.38;4219842;28;5672;-80
2022/12/05 11:00:22;;;;;;;;;;;;;;;10.00;61.45;97098.56;4217405;28;5613;-79
2022/12/05 11:02:28;;;;;;;;;;;;;;;10.03;61.11;97092.91;4235341;28;5726;-81
2022/12/05 11:04:43;;;;;;;;;;;;;;;10.05;61.25;97101.47;4225648;28;5702;-81
2022/12/05 11:06:50;;;;;;;;;;;;;;;10.07;60.93;97084.44;4221483;28;5624;-79
2022/12/05 11:08:55;;;;;;;;;;;;;;;10.09;61.29;97094.84;4218900;28;5621;-81
2022/12/05 11:11:17;;;;;;;;;;;;;;;10.06;61.04;97085.44;4218432;28;5649;-79
2022/12/05 11:13:25;;;;;;;;;;;;;;;10.06;61.18;97090.72;4220160;28;5672;-79
2022/12/05 11:15:31;;;;;;;;;;;;;;;10.06;61.33;97097.81;4234698;28;5681;-79
2022/12/05 11:17:36;;;;;;;;;;;;;;;10.07;61.22;97084.44;4216144;28;5820;-80
2022/12/05 11:19:39;;;;;;;;;;;;;;;10.11;61.02;97087.53;4234136;28;6314;-79
2022/12/05 11:21:43;;;;;;;;;;;;;;;10.13;61.29;97085.53;4235607;28;5602;-79
2022/12/05 11:23:47;;;;;;;;;;;;;;;10.13;61.08;97082.91;4219311;28;5608;-82
2022/12/05 11:25:55;;;;;;;;;;;;;;;10.12;60.65;97086.53;4219779;28;5635;-79
2022/12/05 11:28:00;;;;;;;;;;;;;;;10.12;60.96;97083.91;4235915;28;5693;-79
2022/12/05 11:30:23;;;;;;;;;;;;;;;10.11;60.94;97079.63;4234601;28;5945;-79
2022/12/05 11:32:28;;;;;;;;;;;;;;;10.12;60.89;97081.25;4218686;28;5601;-80
2022/12/05 11:34:37;;;;;;;;;;;;;;;10.14;60.79;97074.78;4229232;28;5590;-78
2022/12/05 11:36:46;;;;;;;;;;;;;;;10.14;60.66;97074.78;4233298;28;5633;-78
2022/12/05 11:38:49;;;;;;;;;;;;;;;10.16;61.00;97079.88;4234814;27;5689;-79
2022/12/05 11:40:56;;;;;;;;;;;;;;;10.18;60.83;97075.22;4234301;27;5586;-79
2022/12/05 11:43:24;;;;;;;;;;;;;;;10.19;60.62;97067.16;4227094;28;5613;-79
2022/12/05 11:45:40;;;;;;;;;;;;;;;10.20;60.68;97073.25;4228106;27;5785;-79
2022/12/05 11:48:02;;;;;;;;;;;;;;;10.20;60.40;97073.25;4224838;27;5815;-78
2022/12/05 11:50:24;;;;;;;;;;;;;;;10.23;60.37;97066.81;4235436;27;5661;-79
2022/12/05 11:52:48;;;;;;;;;;;;;;;10.22;60.55;97070.44;4235505;27;5587;-80
2022/12/05 11:54:56;;;;;;;;;;;;;;;10.22;60.12;97071.28;4251160;27;6280;-78
2022/12/05 11:57:15;;;;;;;;;;;;;;;10.22;60.23;97073.91;4252154;27;5626;-79
2022/12/05 11:59:38;;;;;;;;;;;;;;;10.25;60.07;97070.88;4227169;28;5626;-79
2022/12/05 12:01:51;;;;;;;;;;;;;;;10.26;59.97;97071.72;4225908;28;5642;-80
2022/12/05 12:04:19;;;;;;;;;;;;;;;10.25;59.80;97072.72;4233172;27;5729;-78
2022/12/05 12:06:28;;;;;;;;;;;;;;;10.25;59.68;97057.69;4252406;27;5603;-80
2022/12/05 12:08:48;;;;;;;;;;;;;;;10.26;59.95;97064.59;4222869;28;5598;-80
2022/12/05 12:11:05;;;;;;;;;;;;;;;10.29;59.64;97066.88;4234698;28;5594;-80
2022/12/05 12:13:28;;;;;;;;;;;;;;;10.28;59.61;97056.47;4233403;28;5687;-79
2022/12/05 12:15:45;;;;;;;;;;;;;;;10.27;59.55;97063.59;4229650;28;6509;-79
2022/12/05 12:18:00;;;;;;;;;;;;;;;10.29;59.65;97060.75;4222420;28;5621;-80
2022/12/05 12:20:23;;;;;;;;;;;;;;;10.31;59.53;97064.88;4225236;28;5621;-79
2022/12/05 12:22:47;;;;;;;;;;;;;;;10.31;59.55;97062.25;4231733;28;5606;-79
2022/12/05 12:25:06;;;;;;;;;;;;;;;10.33;59.68;97065.50;4218598;28;5081;-80
2022/12/05 12:27:21;;;;;;;;;;;;;;;10.35;59.54;97068.78;4234680;27;5670;-79
2022/12/05 12:29:38;;;;;;;;;;;;;;;10.36;59.37;97069.59;4217729;28;5665;-80
2022/12/05 12:31:55;;;;;;;;;;;;;;;10.35;59.50;97065.31;4234608;27;5108;-79
2022/12/05 12:34:09;;;;;;;;;;;;;;;10.35;59.08;97070.59;4234494;27;5965;-79
2022/12/05 12:36:18;;;;;;;;;;;;;;;10.32;58.98;97066.53;4230956;28;6554;-79
2022/12/05 12:38:39;;;;;;;;;;;;;;;10.32;59.02;97074.44;4216191;28;6394;-79
2022/12/05 12:40:49;;;;;;;;;;;;;;;10.31;58.91;97067.53;4235032;27;5647;-78
2022/12/05 12:43:02;;;;;;;;;;;;;;;10.31;59.16;97070.16;4217465;28;5653;-80
2022/12/05 12:45:35;;;;;;;;;;;;;;;10.33;59.14;97078.72;4201428;28;5815;-79
2022/12/05 12:47:50;;;;;;;;;;;;;;;10.33;59.23;97070.78;4231300;27;5606;-78
2022/12/05 12:50:03;;;;;;;;;;;;;;;10.36;59.25;97073.06;4226957;28;5636;-78
2022/12/05 12:52:12;;;;;;;;;;;;;;;10.36;59.03;97070.41;4221869;27;5783;-78
2022/12/05 12:54:33;;;;;;;;;;;;;;;10.37;58.85;97063.31;4230291;27;5813;-79
2022/12/05 12:57:05;;;;;;;;;;;;;;;10.38;58.70;97070.22;4227050;27;5851;-79
2022/12/05 12:59:33;;;;;;;;;;;;;;;10.40;58.82;97066.38;4227553;27;5613;-79
2022/12/05 13:01:42;;;;;;;;;;;;;;;10.39;58.75;97074.50;4234506;28;5906;-79
2022/12/05 13:03:51;;;;;;;;;;;;;;;10.37;58.79;97064.13;4237464;27;5843;-79
2022/12/05 13:05:59;;;;;;;;;;;;;;;10.39;59.08;97072.69;4238677;27;5610;-79
2022/12/05 13:08:07;;;;;;;;;;;;;;;10.41;58.71;97064.56;4237481;28;5598;-79
2022/12/05 13:10:18;;;;;;;;;;;;;;;10.40;58.77;97066.38;4233050;27;5641;-79
2022/12/05 13:12:37;;;;;;;;;;;;;;;10.41;58.73;97070.66;4236246;27;5700;-78
2022/12/05 13:14:53;;;;;;;;;;;;;;;10.42;59.04;97067.06;4232910;27;5753;-78
2022/12/05 13:16:59;;;;;;;;;;;;;;;10.41;58.78;97062.75;4235279;28;6473;-83
2022/12/05 13:19:04;;;;;;;;;;;;;;;10.39;59.02;97058.66;4225804;27;5594;-81
2022/12/05 13:21:09;;;;;;;;;;;;;;;10.40;58.69;97058.47;4232695;27;5603;-81
2022/12/05 13:23:14;;;;;;;;;;;;;;;10.42;59.10;97066.22;4209698;28;7728;-81
2022/12/05 13:25:21;;;;;;;;;;;;;;;10.40;59.04;97066.38;4226608;27;7177;-79
2022/12/05 13:27:27;;;;;;;;;;;;;;;10.39;59.08;97062.13;4231648;27;5788;-80
2022/12/05 13:29:33;;;;;;;;;;;;;;;10.38;59.00;97052.56;4232439;27;5613;-78
2022/12/05 13:31:40;;;;;;;;;;;;;;;10.36;58.78;97053.75;4234041;27;5605;-79
2022/12/05 13:33:45;;;;;;;;;;;;;;;10.36;58.77;97054.56;4226074;27;5607;-79
2022/12/05 13:43:18;;;;;;;;;;;;;;;10.35;58.69;97054.75;4230224;27;5759;-79
2022/12/05 13:45:22;;;;;;;;;;;;;;;10.36;58.61;97066.97;4233359;27;5598;-80
2022/12/05 13:47:29;;;;;;;;;;;;;;;10.33;59.11;97057.59;4230048;28;5620;-80
2022/12/05 13:49:37;;;;;;;;;;;;;;;10.35;58.93;97066.13;4228897;28;5606;-79
2022/12/05 13:51:44;;;;;;;;;;;;;;;10.35;58.95;97058.22;4231470;27;5632;-79
2022/12/05 13:54:00;;;;;;;;;;;;;;;10.35;58.92;97060.84;4230410;28;5586;-80
2022/12/05 13:56:22;;;;;;;;;;;;;;;10.36;58.55;97067.78;4226040;27;5739;-79
2022/12/05 13:58:44;;;;;;;;;;;;;;;10.35;58.62;97052.94;4229187;27;5814;-79
2022/12/05 14:00:48;;;;;;;;;;;;;;;10.36;58.89;97051.91;4224245;28;5612;-80
2022/12/05 14:03:04;;;;;;;;;;;;;;;10.34;58.59;97059.22;4225439;27;5602;-80
2022/12/05 14:05:38;;;;;;;;;;;;;;;10.37;58.54;97056.19;4231232;27;5624;-81
2022/12/05 14:07:44;;;;;;;;;;;;;;;10.37;58.53;97042.97;4224645;28;5609;-80
2022/12/05 14:09:52;;;;;;;;;;;;;;;10.39;58.71;97050.72;4223338;27;5599;-79
2022/12/05 14:12:46;;;;;;;;;;;;;;;10.37;58.48;97047.44;4229017;27;5987;-78
2022/12/05 14:15:00;;;;;;;;;;;;;;;10.33;58.34;97051.47;4145464;28;5842;-79
2022/12/05 14:17:03;;;;;;;;;;;;;;;10.32;58.60;97048.03;4133566;28;5738;-79
2022/12/05 14:19:15;;;;;;;;;;;;;;;10.34;58.49;97048.66;4149093;28;5834;-79
2022/12/05 14:21:24;;;;;;;;;;;;;;;10.33;58.69;97043.56;4148775;28;5769;-79
2022/12/05 14:23:53;;;;;;;;;;;;;;;10.33;58.64;97047.00;4144360;28;5779;-79
2022/12/05 14:26:12;;;;;;;;;;;;;;;10.35;58.30;97044.19;4154460;28;5774;-79
2022/12/05 14:28:26;;;;;;;;;;;;;;;10.37;58.51;97042.97;4142678;28;6508;-81
2022/12/05 14:30:44;;;;;;;;;;;;;;;10.38;58.46;97047.25;4142808;28;5801;-80
2022/12/05 14:32:48;;;;;;;;;;;;;;;10.39;58.32;97045.44;4147658;28;5995;-80
2022/12/05 14:35:01;;;;;;;;;;;;;;;10.38;58.17;97044.63;4148326;28;5731;-80
2022/12/05 14:37:08;;;;;;;;;;;;;;;10.37;58.41;97045.63;4149503;28;5787;-80
2022/12/05 14:39:21;;;;;;;;;;;;;;;10.38;58.23;97047.25;4145961;28;5840;-78
2022/12/05 14:41:31;;;;;;;;;;;;;;;10.40;58.19;97047.88;4150370;28;5708;-80
2022/12/05 14:43:35;;;;;;;;;;;;;;;10.40;57.90;97047.88;4141111;28;5726;-79
2022/12/05 14:45:45;;;;;;;;;;;;;;;10.40;57.97;97047.88;4147747;28;6422;-79
2022/12/05 14:47:52;;;;;;;;;;;;;;;10.40;57.97;97045.25;4153736;28;5913;-79
2022/12/05 14:50:00;;;;;;;;;;;;;;;10.41;57.96;97052.16;4221632;27;5684;-80
2022/12/05 14:52:12;;;;;;;;;;;;;;;10.39;57.84;97045.44;4225679;27;5741;-78
2022/12/05 14:54:17;;;;;;;;;;;;;;;10.41;58.23;97054.00;4220138;27;5799;-79
2022/12/05 14:56:22;;;;;;;;;;;;;;;10.39;57.89;97048.91;4228487;27;5681;-80
2022/12/05 14:58:36;;;;;;;;;;;;;;;10.39;57.63;97046.25;4208657;28;5804;-79
2022/12/05 15:00:41;;;;;;;;;;;;;;;10.38;57.73;97044.63;4228337;27;5805;-80
2022/12/05 15:02:54;;;;;;;;;;;;;;;10.39;57.47;97045.44;4221310;27;5606;-79
2022/12/05 15:05:05;;;;;;;;;;;;;;;10.37;57.95;97048.28;4222884;27;5594;-79
2022/12/05 15:07:11;;;;;;;;;;;;;;;10.38;57.80;97054.38;4221081;27;5700;-79
2022/12/05 15:09:32;;;;;;;;;;;;;;;10.37;57.62;97045.63;4226559;27;5701;-78
2022/12/05 15:11:40;;;;;;;;;;;;;;;10.38;57.74;97049.09;4226808;27;5823;-80
2022/12/05 15:13:43;;;;;;;;;;;;;;;10.37;57.80;97047.44;4229297;27;5800;-79
2022/12/05 15:15:55;;;;;;;;;;;;;;;10.36;57.54;97051.91;4233694;27;5665;-82
2022/12/05 15:18:04;;;;;;;;;;;;;;;10.35;57.34;97050.28;4228975;27;5701;-80
2022/12/05 15:20:16;;;;;;;;;;;;;;;10.33;57.63;97043.56;4229184;27;5728;-80
2022/12/05 15:22:23;;;;;;;;;;;;;;;10.34;57.39;97046.00;4231539;27;5602;-80
2022/12/05 15:24:37;;;;;;;;;;;;;;;10.35;57.50;97046.81;4226694;28;5626;-80
2022/12/05 15:26:42;;;;;;;;;;;;;;;10.33;57.15;97044.38;4224540;28;5770;-80
2022/12/05 15:28:59;;;;;;;;;;;;;;;10.33;57.33;97047.00;4211424;28;5624;-80
2022/12/05 15:31:04;;;;;;;;;;;;;;;10.31;57.21;97048.22;4222498;28;5815;-80
2022/12/05 15:33:12;;;;;;;;;;;;;;;10.30;57.21;97055.28;4221186;27;5677;-81
2022/12/05 15:35:16;;;;;;;;;;;;;;;10.28;56.94;97059.13;4220183;28;5653;-80
2022/12/05 15:37:23;;;;;;;;;;;;;;;10.29;57.22;97061.56;4219507;27;5704;-80
2022/12/05 15:39:27;;;;;;;;;;;;;;;10.26;56.87;97056.66;4226916;27;5816;-82
2022/12/05 15:41:30;;;;;;;;;;;;;;;10.28;57.15;97065.22;4231440;27;5728;-80
2022/12/05 15:43:36;;;;;;;;;;;;;;;10.27;57.00;97063.59;4223669;27;5700;-81
2022/12/05 15:45:39;;;;;;;;;;;;;;;10.26;56.94;97077.00;4231542;27;5840;-81
2022/12/05 15:47:45;;;;;;;;;;;;;;;10.25;57.04;97076.19;4223176;27;5806;-79
2022/12/05 15:49:48;;;;;;;;;;;;;;;10.23;56.94;97078.19;4232008;27;5654;-79
2022/12/05 15:51:55;;;;;;;;;;;;;;;10.21;56.90;97074.88;4206872;28;6449;-80
2022/12/05 15:54:11;;;;;;;;;;;;;;;10.21;56.82;97080.16;4232873;27;5586;-80
2022/12/05 15:56:17;;;;;;;;;;;;;;;10.19;56.93;97068.94;4227086;27;5729;-81
2022/12/05 15:58:28;;;;;;;;;;;;;;;10.17;56.57;97076.22;4227165;28;5774;-82
2022/12/05 16:00:34;;;;;;;;;;;;;;;10.17;56.31;97073.59;4224755;28;5692;-80
2022/12/05 16:02:55;;;;;;;;;;;;;;;10.15;56.48;97075.59;4223523;27;5677;-80
2022/12/05 16:07:16;;;;;;;;;;;;;;;10.14;56.36;97080.06;4227140;27;5123;-80
2022/12/05 16:09:21;;;;;;;;;;;;;;;10.14;56.35;97080.06;4219674;27;7659;-80
2022/12/05 16:11:24;;;;;;;;;;;;;;;10.13;56.07;97078.44;4218801;27;7336;-80
2022/12/05 16:13:28;;;;;;;;;;;;;;;10.11;56.18;97080.44;4219501;27;5835;-81
2022/12/05 16:15:31;;;;;;;;;;;;;;;10.10;55.99;97083.28;4223347;28;5817;-81
2022/12/05 16:17:41;;;;;;;;;;;;;;;10.10;55.96;97093.84;4209673;28;5802;-80
2022/12/05 16:19:50;;;;;;;;;;;;;;;10.06;56.07;97081.97;4226553;27;5700;-82
2022/12/05 16:22:02;;;;;;;;;;;;;;;10.07;56.14;97083.63;4227101;27;5615;-81